Terminal Aerodrome Forecast
Issued by NWS Wilmington, OH

Current Version | Previous Version | Graphics & Text | Print | Product List | Glossary On
Versions: 1 2 3 4 5 6 7 8 9 10 11 12 13 14 15 16 17 18 19 20 21 22
000
FTUS41 KILN 281100
TAFDAY
TAF
KDAY 281139Z 2812/0112 10005KT P6SM BKN100
     FM281800 10007KT P6SM SCT025 BKN060
     FM010200 12006KT 3SM -SN BKN025 OVC040
     FM010600 14005KT 1SM -SN OVC012
     FM010900 16004KT 1/2SM SN OVC008=

USA.gov is the U.S. government's official web portal to all federal, state and local government web resources and services.